CheckWX is a tool to help pilots better visualize weather data.  It is not intended as a substitute for an official pre-flight weather briefing.

02:48:06 UTC

KRDR TAF
Grand Forks AFB Airport
Grand Forks, North Dakota, USA
TAF KRDR 210200Z 2102/2208 19012G18KT 8000 -TSRA FEW025CB OVC050 QNH2965INS TEMPO 2102/2106 19035G50KT 1600 +TSRAGR OVC025CB BECMG 2112/2113 33010G15KT 8000 -SHRA BKN025 OVC040 QNH2954INS TEMPO 2121/2124 21015G25KT 3200 -TSRA BKN030CB TX24/2103Z TN14/2202Z

Sep-21@
02:00 UTC

Sep-21 @ 02:00 UTC

Sep-21@
12:00 UTC

Sep-21 @ 12:00 UTC

TAF KRDR 210200Z 2102/2208 19012G18KT 8000 -TSRA FEW025CB OVC050 QNH2965INS
Wind
  • 190° at 12 KTS
  • {Gusting to 18 KTS
Conditions
Light Thunderstorm, Light Rain
Cloud Levels
  • Few at 2,500' AGL
  • Overcast at 5,000' AGL

Sep-21@
02:00 UTC

Sep-21 @ 02:00 UTC

Sep-21@
06:00 UTC

Sep-21 @ 06:00 UTC

TEMPO 2102/2106 19035G50KT 1600 +TSRAGR OVC025CB

Temporary

Temporary Changes expected for less than half the time period

Wind
  • 190° at 35 KTS
  • {Gusting to 50 KTS
Conditions
Heavy Thunderstorm, Heavy Rain, Heavy Thunderstorm, Heavy Hail
Cloud Levels
  • Overcast at 2,500' AGL

Sep-21@
12:00 UTC

Sep-21 @ 12:00 UTC

Sep-22@
08:00 UTC

Sep-22 @ 08:00 UTC

BECMG 2112/2113 33010G15KT 8000 -SHRA BKN025 OVC040 QNH2954INS

Becoming

Becoming Conditions expected by Sat, Sep 21, 2019 @ 13:00 UTC

Wind
  • 330° at 10 KTS
  • {Gusting to 15 KTS
Conditions
Light Rain
Cloud Levels
  • Broken at 2,500' AGL
  • Overcast at 4,000' AGL

Sep-21@
21:00 UTC

Sep-21 @ 21:00 UTC

Sep-22@
00:00 UTC

Sep-22 @ 00:00 UTC

TEMPO 2121/2124 21015G25KT 3200 -TSRA BKN030CB TX24/2103Z TN14/2202Z

Temporary

Temporary Changes expected for less than half the time period

Wind
  • 210° at 15 KTS
  • {Gusting to 25 KTS
Conditions
Light Thunderstorm, Light Rain
Cloud Levels
  • Broken at 3,000' AGL